Time;durP1;ratioP1;P1;durP2;ratioP2;P2;SDS_P1;SDS_P2;PMS_P1;PMS_P2;Temp;Humidity;BMP_temperature;BMP_pressure;BME280_temperature;BME280_humidity;BME280_pressure;Samples;Min_cycle;Max_cycle;Signal;HPM_P1;HPM_P2
2022/02/24 00:00:08;;;;;;;;;10.75;9.25;;;;;-142.59;100.00;56100.38;5071330;28;50360;-61
2022/02/24 00:02:33;;;;;;;;;12.75;8.50;;;;;-142.59;100.00;56100.38;5070709;27;49732;-61
2022/02/24 00:04:58;;;;;;;;;10.00;8.50;;;;;-142.59;100.00;56100.38;5071387;28;49649;-60
2022/02/24 00:07:24;;;;;;;;;9.25;8.00;;;;;-142.59;100.00;56100.38;5053135;28;49574;-60
2022/02/24 00:09:49;;;;;;;;;7.75;7.75;;;;;-142.59;100.00;56100.38;5070941;28;50602;-64
2022/02/24 00:12:15;;;;;;;;;11.75;9.25;;;;;-142.59;100.00;56100.38;5071406;28;49986;-63
2022/02/24 00:14:40;;;;;;;;;9.00;8.75;;;;;-142.59;100.00;56100.38;5071004;28;50334;-63
2022/02/24 00:17:07;;;;;;;;;9.25;8.50;;;;;-142.59;100.00;56100.38;5070947;28;49747;-64
2022/02/24 00:19:33;;;;;;;;;11.25;10.50;;;;;-142.59;100.00;56100.38;5070810;28;50821;-64
2022/02/24 00:21:58;;;;;;;;;8.25;8.00;;;;;-142.59;100.00;56100.38;5070998;27;49850;-63
2022/02/24 00:24:24;;;;;;;;;8.75;8.75;;;;;-142.59;100.00;56100.38;5070825;28;49727;-64
2022/02/24 00:26:49;;;;;;;;;11.00;8.00;;;;;-142.59;100.00;56100.38;5070922;28;49604;-63
2022/02/24 00:29:15;;;;;;;;;8.25;8.00;;;;;-142.59;100.00;56100.38;5070749;27;50474;-63
2022/02/24 00:31:40;;;;;;;;;9.25;7.50;;;;;-142.59;100.00;56100.38;5069212;28;49913;-64
2022/02/24 00:34:05;;;;;;;;;8.00;8.00;;;;;-142.59;100.00;56100.38;5070755;28;49740;-64
2022/02/24 00:36:31;;;;;;;;;4.50;3.50;;;;;-142.59;100.00;56100.38;5070967;27;49775;-64
2022/02/24 00:38:56;;;;;;;;;8.50;7.75;;;;;-142.59;100.00;56100.38;5070738;28;49861;-63
2022/02/24 00:41:21;;;;;;;;;11.25;11.25;;;;;-142.59;100.00;56100.38;5070602;27;49712;-63
2022/02/24 00:43:47;;;;;;;;;10.25;10.00;;;;;-142.59;100.00;56100.38;5052295;28;49690;-63
2022/02/24 00:46:12;;;;;;;;;9.75;8.00;;;;;-142.59;100.00;56100.38;5070730;28;49940;-63
2022/02/24 00:48:37;;;;;;;;;14.25;13.25;;;;;-142.59;100.00;56100.38;5070003;27;50410;-63
2022/02/24 00:51:04;;;;;;;;;9.75;8.25;;;;;-142.59;100.00;56100.38;5070857;27;50021;-64
2022/02/24 00:53:29;;;;;;;;;8.75;8.75;;;;;-142.59;100.00;56100.38;5070528;27;49836;-63
2022/02/24 00:55:55;;;;;;;;;10.75;10.00;;;;;-142.59;100.00;56100.38;5070483;28;49747;-63
2022/02/24 00:58:22;;;;;;;;;14.75;10.50;;;;;-142.59;100.00;56100.38;5070057;27;49904;-63
2022/02/24 01:00:48;;;;;;;;;10.00;9.00;;;;;-142.59;100.00;56100.38;5070725;28;50008;-63
2022/02/24 01:03:14;;;;;;;;;13.50;10.75;;;;;-142.59;100.00;56100.38;5070041;28;49874;-63
2022/02/24 01:05:39;;;;;;;;;14.75;13.75;;;;;-142.59;100.00;56100.38;5070527;28;49863;-63
2022/02/24 01:08:05;;;;;;;;;11.50;10.75;;;;;-142.59;100.00;56100.38;5069960;28;50339;-63
2022/02/24 01:10:30;;;;;;;;;10.50;9.75;;;;;-142.59;100.00;56100.38;5069908;28;49745;-63
2022/02/24 01:12:55;;;;;;;;;16.50;14.00;;;;;-142.59;100.00;56100.38;5070291;28;49787;-63
2022/02/24 01:15:21;;;;;;;;;10.75;9.50;;;;;-142.59;100.00;56100.38;5070168;27;50107;-63
2022/02/24 01:17:46;;;;;;;;;13.25;13.00;;;;;-142.59;100.00;56100.38;5069930;28;50475;-63
2022/02/24 01:20:11;;;;;;;;;14.50;12.25;;;;;-142.59;100.00;56100.38;5069980;28;49897;-63
2022/02/24 01:22:37;;;;;;;;;14.25;11.75;;;;;-142.59;100.00;56100.38;5070458;28;50401;-63
2022/02/24 01:25:04;;;;;;;;;11.75;10.75;;;;;-142.59;100.00;56100.38;5069838;28;49569;-63
2022/02/24 01:27:29;;;;;;;;;13.00;10.25;;;;;-142.59;100.00;56100.38;5069723;28;51193;-63
2022/02/24 01:29:55;;;;;;;;;10.75;10.75;;;;;-142.59;100.00;56100.38;5069947;27;49810;-64
2022/02/24 01:32:20;;;;;;;;;14.50;14.00;;;;;-142.59;100.00;56100.38;5069926;28;49744;-63
2022/02/24 01:34:46;;;;;;;;;17.50;14.75;;;;;-142.59;100.00;56100.38;5070030;28;49689;-64
2022/02/24 01:37:11;;;;;;;;;16.00;12.75;;;;;-142.59;100.00;56100.38;5069237;28;50926;-63
2022/02/24 01:39:36;;;;;;;;;14.00;11.00;;;;;-142.59;100.00;56100.38;5051548;28;49962;-64
2022/02/24 01:42:02;;;;;;;;;14.00;12.00;;;;;-142.59;100.00;56100.38;5070109;28;49918;-63
2022/02/24 01:44:40;;;;;;;;;13.50;10.25;;;;;-142.59;100.00;56100.38;5073429;27;49815;-63
2022/02/24 01:47:06;;;;;;;;;12.00;9.25;;;;;-142.59;100.00;56100.38;5073011;28;49714;-63
2022/02/24 01:49:31;;;;;;;;;14.75;11.25;;;;;-142.59;100.00;56100.38;5073178;27;49710;-63
2022/02/24 01:51:56;;;;;;;;;7.75;7.75;;;;;-142.59;100.00;56100.38;5073397;28;49850;-63
2022/02/24 01:54:22;;;;;;;;;13.50;12.25;;;;;-142.59;100.00;56100.38;5073321;27;49960;-63
2022/02/24 01:56:47;;;;;;;;;9.50;9.50;;;;;-142.59;100.00;56100.38;5073618;27;50476;-64
2022/02/24 01:59:12;;;;;;;;;15.25;13.00;;;;;-142.59;100.00;56100.38;5073128;27;49785;-64
2022/02/24 02:01:38;;;;;;;;;16.75;14.00;;;;;-142.59;100.00;56100.38;5073389;28;50145;-63
2022/02/24 02:04:03;;;;;;;;;11.25;10.25;;;;;-142.59;100.00;56100.38;5073556;28;49821;-64
2022/02/24 02:06:29;;;;;;;;;10.25;9.75;;;;;-142.59;100.00;56100.38;5073014;28;49694;-64
2022/02/24 02:08:54;;;;;;;;;12.75;12.75;;;;;-142.59;100.00;56100.38;5072984;28;49912;-63
2022/02/24 02:11:19;;;;;;;;;15.50;13.75;;;;;-142.59;100.00;56100.38;5073372;28;49707;-63
2022/02/24 02:13:45;;;;;;;;;11.00;9.50;;;;;-142.59;100.00;56100.38;5073345;28;49912;-63
2022/02/24 02:16:12;;;;;;;;;8.50;8.00;;;;;-142.59;100.00;56100.38;5072810;28;50061;-63
2022/02/24 02:18:38;;;;;;;;;7.25;7.25;;;;;-142.59;100.00;56100.38;5072885;27;49873;-64
2022/02/24 02:21:04;;;;;;;;;12.00;9.50;;;;;-142.59;100.00;56100.38;5073030;27;49953;-63
2022/02/24 02:23:29;;;;;;;;;16.00;11.50;;;;;-142.59;100.00;56100.38;5073258;28;49938;-63
2022/02/24 02:25:55;;;;;;;;;10.00;10.00;;;;;-142.59;100.00;56100.38;5072559;27;50641;-64
2022/02/24 02:28:20;;;;;;;;;11.00;11.00;;;;;-142.59;100.00;56100.38;5073043;28;49785;-63
2022/02/24 02:30:46;;;;;;;;;11.25;9.50;;;;;-142.59;100.00;56100.38;5072724;27;49760;-63
2022/02/24 02:33:11;;;;;;;;;13.25;10.25;;;;;-142.59;100.00;56100.38;5072813;28;49808;-63
2022/02/24 02:35:37;;;;;;;;;10.75;10.75;;;;;-142.59;100.00;56100.38;5072336;27;50893;-63
2022/02/24 02:38:04;;;;;;;;;13.25;9.00;;;;;-142.59;100.00;56100.38;5072722;28;49857;-63
2022/02/24 02:40:29;;;;;;;;;10.50;7.25;;;;;-142.59;100.00;56100.38;5072903;27;50053;-63
2022/02/24 02:42:55;;;;;;;;;10.75;10.25;;;;;-142.59;100.00;56100.38;5072878;27;49898;-63
2022/02/24 02:45:20;;;;;;;;;11.75;10.00;;;;;-142.59;100.00;56100.38;5072649;28;49987;-63
2022/02/24 02:47:46;;;;;;;;;10.25;9.25;;;;;-142.59;100.00;56100.38;5072357;28;49707;-63
2022/02/24 02:50:12;;;;;;;;;11.25;9.50;;;;;-142.59;100.00;56100.38;5072758;28;50056;-63
2022/02/24 02:52:38;;;;;;;;;11.00;9.75;;;;;-142.59;100.00;56100.38;5072648;27;49791;-63
2022/02/24 02:55:06;;;;;;;;;16.00;10.75;;;;;-142.59;100.00;56100.38;5071643;27;49785;-63
2022/02/24 02:57:31;;;;;;;;;15.25;12.00;;;;;-142.59;100.00;56100.38;5054175;28;49846;-63
2022/02/24 02:59:57;;;;;;;;;11.00;9.75;;;;;-142.59;100.00;56100.38;5054076;28;49795;-63
2022/02/24 03:02:22;;;;;;;;;9.25;8.25;;;;;-142.59;100.00;56100.38;5072323;28;49967;-63
2022/02/24 03:04:50;;;;;;;;;13.50;12.25;;;;;-142.59;100.00;56100.38;5072091;28;49862;-64
2022/02/24 03:07:17;;;;;;;;;9.75;9.75;;;;;-142.59;100.00;56100.38;5072095;27;49801;-63
2022/02/24 03:09:42;;;;;;;;;9.75;9.75;;;;;-142.59;100.00;56100.38;5072113;28;49743;-63
2022/02/24 03:12:08;;;;;;;;;10.75;9.75;;;;;-142.59;100.00;56100.38;5072279;28;50165;-63
2022/02/24 03:14:35;;;;;;;;;9.00;9.00;;;;;-142.59;100.00;56100.38;5072153;28;50775;-63
2022/02/24 03:17:00;;;;;;;;;15.00;12.25;;;;;-142.59;100.00;56100.38;5072011;28;49915;-63
2022/02/24 03:19:25;;;;;;;;;16.50;12.00;;;;;-142.59;100.00;56100.38;5072158;28;49621;-63
2022/02/24 03:21:51;;;;;;;;;13.50;9.50;;;;;-142.59;100.00;56100.38;5072121;28;49612;-63
2022/02/24 03:24:16;;;;;;;;;15.25;13.50;;;;;-142.59;100.00;56100.38;5071923;28;50747;-63
2022/02/24 03:26:41;;;;;;;;;13.25;8.75;;;;;-142.59;100.00;56100.38;5071827;28;49696;-63
2022/02/24 03:29:07;;;;;;;;;10.75;10.75;;;;;-142.59;100.00;56100.38;5071889;28;49798;-63
2022/02/24 03:31:32;;;;;;;;;10.25;10.25;;;;;-142.59;100.00;56100.38;5071604;28;49645;-63
2022/02/24 03:33:57;;;;;;;;;15.75;12.00;;;;;-142.59;100.00;56100.38;5071425;27;49850;-63
2022/02/24 03:36:23;;;;;;;;;7.00;7.00;;;;;-142.59;100.00;56100.38;5071653;27;49593;-64
2022/02/24 03:38:48;;;;;;;;;10.25;8.00;;;;;-142.59;100.00;56100.38;5071783;28;49652;-64
2022/02/24 03:41:13;;;;;;;;;16.50;10.00;;;;;-142.59;100.00;56100.38;5071884;28;49666;-63
2022/02/24 03:43:39;;;;;;;;;14.00;8.50;;;;;-142.59;100.00;56100.38;5071471;28;49677;-63
2022/02/24 03:46:04;;;;;;;;;10.25;6.75;;;;;-142.59;100.00;56100.38;5071608;28;49712;-63
2022/02/24 03:48:29;;;;;;;;;9.50;7.75;;;;;-142.59;100.00;56100.38;5071126;28;49802;-63
2022/02/24 03:50:55;;;;;;;;;9.75;9.25;;;;;-142.59;100.00;56100.38;5071848;27;49561;-63
2022/02/24 03:53:20;;;;;;;;;13.75;12.50;;;;;-142.59;100.00;56100.38;5071713;28;49980;-64
2022/02/24 03:55:46;;;;;;;;;7.00;7.00;;;;;-142.59;100.00;56100.38;5071229;28;49867;-63
2022/02/24 03:58:11;;;;;;;;;10.75;9.75;;;;;-142.59;100.00;56100.38;5071594;28;50059;-64
2022/02/24 04:00:36;;;;;;;;;7.25;7.25;;;;;-142.59;100.00;56100.38;5053401;28;49973;-63
2022/02/24 04:03:02;;;;;;;;;9.00;7.00;;;;;-142.59;100.00;56100.38;5070843;28;49666;-63
2022/02/24 04:05:27;;;;;;;;;7.25;7.25;;;;;-142.59;100.00;56100.38;5071027;27;49969;-64
2022/02/24 04:07:54;;;;;;;;;9.25;8.00;;;;;-142.59;100.00;56100.38;5070395;28;49634;-63
2022/02/24 04:10:19;;;;;;;;;9.75;9.75;;;;;-142.59;100.00;56100.38;5071631;28;49930;-63
2022/02/24 04:12:44;;;;;;;;;14.00;9.00;;;;;-142.59;100.00;56100.38;5070827;27;50944;-63
2022/02/24 04:15:11;;;;;;;;;6.50;6.50;;;;;-142.59;100.00;56100.38;5070941;28;49895;-63
2022/02/24 04:17:37;;;;;;;;;8.25;8.25;;;;;-142.59;100.00;56100.38;5070917;27;49871;-63
2022/02/24 04:20:02;;;;;;;;;7.00;7.00;;;;;-142.59;100.00;56100.38;5071234;27;49812;-63
2022/02/24 04:22:28;;;;;;;;;5.50;5.50;;;;;-142.59;100.00;56100.38;5052465;28;50744;-63
2022/02/24 04:24:53;;;;;;;;;6.50;4.50;;;;;-142.59;100.00;56100.38;5052746;28;49664;-63
2022/02/24 04:27:18;;;;;;;;;8.50;7.00;;;;;-142.59;100.00;56100.38;5070931;28;49509;-63
2022/02/24 04:29:44;;;;;;;;;7.50;4.25;;;;;-142.59;100.00;56100.38;5052861;28;49926;-63
2022/02/24 04:32:09;;;;;;;;;8.25;5.50;;;;;-142.59;100.00;56100.38;5070075;28;49913;-63
2022/02/24 04:34:35;;;;;;;;;9.25;4.75;;;;;-142.59;100.00;56100.38;5052295;28;49928;-63
2022/02/24 04:37:00;;;;;;;;;8.50;4.75;;;;;-142.59;100.00;56100.38;5070974;28;49710;-63
2022/02/24 04:39:26;;;;;;;;;7.00;5.75;;;;;-142.59;100.00;56100.38;5070910;28;50674;-63
2022/02/24 04:41:51;;;;;;;;;11.00;7.25;;;;;-142.59;100.00;56100.38;5070702;27;49739;-63
2022/02/24 04:44:16;;;;;;;;;6.25;4.50;;;;;-142.59;100.00;56100.38;5070907;27;49907;-64
2022/02/24 04:46:42;;;;;;;;;6.75;6.75;;;;;-142.59;100.00;56100.38;5051740;28;49804;-63
2022/02/24 04:49:07;;;;;;;;;6.50;4.00;;;;;-142.59;100.00;56100.38;5070840;28;49978;-64
2022/02/24 04:51:33;;;;;;;;;8.00;6.00;;;;;-142.59;100.00;56100.38;5070433;28;49605;-64
2022/02/24 04:53:58;;;;;;;;;6.00;6.00;;;;;-142.59;100.00;56100.38;5070479;28;50043;-64
2022/02/24 04:56:24;;;;;;;;;7.25;7.25;;;;;-142.59;100.00;56100.38;5070532;28;49819;-64
2022/02/24 04:58:49;;;;;;;;;4.00;4.00;;;;;-142.59;100.00;56100.38;5070678;28;49710;-63
2022/02/24 05:01:14;;;;;;;;;6.25;3.25;;;;;-142.59;100.00;56100.38;5070080;28;50331;-63
2022/02/24 05:03:40;;;;;;;;;7.00;4.00;;;;;-142.59;100.00;56100.38;5070154;28;49799;-63
2022/02/24 05:06:05;;;;;;;;;4.50;4.50;;;;;-142.59;100.00;56100.38;5070520;28;50000;-63
2022/02/24 05:08:31;;;;;;;;;5.50;4.00;;;;;-142.59;100.00;56100.38;5070624;28;49835;-63
2022/02/24 05:10:56;;;;;;;;;6.00;3.75;;;;;-142.59;100.00;56100.38;5070394;28;50914;-63
2022/02/24 05:13:22;;;;;;;;;3.00;3.00;;;;;-142.59;100.00;56100.38;5069991;27;49805;-63
2022/02/24 05:15:49;;;;;;;;;7.00;7.00;;;;;-142.59;100.00;56100.38;5070344;28;49762;-63
2022/02/24 05:18:14;;;;;;;;;8.25;6.50;;;;;-142.59;100.00;56100.38;5069567;27;49981;-63
2022/02/24 05:20:40;;;;;;;;;7.25;4.00;;;;;-142.59;100.00;56100.38;5069901;28;49811;-63
2022/02/24 05:23:05;;;;;;;;;6.50;5.00;;;;;-142.59;100.00;56100.38;5070060;28;49829;-63
2022/02/24 05:25:34;;;;;;;;;6.50;3.25;;;;;-142.59;100.00;56100.38;5069815;28;49764;-63
2022/02/24 05:28:08;;;;;;;;;3.50;3.50;;;;;-142.59;100.00;56100.38;5070288;27;49870;-63
2022/02/24 05:30:34;;;;;;;;;3.75;3.75;;;;;-142.59;100.00;56100.38;5051317;27;53113;-63
2022/02/24 05:32:59;;;;;;;;;3.50;2.00;;;;;-142.59;100.00;56100.38;5069816;27;49803;-63
2022/02/24 05:35:24;;;;;;;;;3.00;3.00;;;;;-142.59;100.00;56100.38;5070019;28;49810;-63
2022/02/24 05:37:51;;;;;;;;;7.50;4.00;;;;;-142.59;100.00;56100.38;5070010;28;49666;-63
2022/02/24 05:40:17;;;;;;;;;7.00;6.25;;;;;-142.59;100.00;56100.38;5069891;28;50486;-63
2022/02/24 05:42:43;;;;;;;;;2.00;2.00;;;;;-142.59;100.00;56100.38;5069837;28;49725;-63
2022/02/24 05:45:09;;;;;;;;;2.00;2.00;;;;;-142.59;100.00;56100.38;5069848;28;49798;-63
2022/02/24 05:47:34;;;;;;;;;4.00;2.00;;;;;-142.59;100.00;56100.38;5071599;27;50158;-63
2022/02/24 05:50:00;;;;;;;;;2.75;2.50;;;;;-142.59;100.00;56100.38;5073367;27;50603;-63
2022/02/24 05:52:25;;;;;;;;;5.00;2.75;;;;;-142.59;100.00;56100.38;5069662;27;49768;-62
2022/02/24 05:54:50;;;;;;;;;0.00;0.00;;;;;-142.59;100.00;56100.38;5069745;27;49670;-63
2022/02/24 05:57:16;;;;;;;;;6.00;3.00;;;;;-142.59;100.00;56100.38;5069559;27;49918;-62
2022/02/24 05:59:41;;;;;;;;;3.00;3.00;;;;;-142.59;100.00;56100.38;5069748;27;54918;-63
2022/02/24 06:02:07;;;;;;;;;6.75;2.75;;;;;-142.59;100.00;56100.38;5070288;27;49850;-62
2022/02/24 06:04:32;;;;;;;;;4.00;3.00;;;;;-142.59;100.00;56100.38;5069465;27;49687;-62
2022/02/24 06:06:57;;;;;;;;;6.00;2.25;;;;;-142.59;100.00;56100.38;5069737;27;49854;-63
2022/02/24 06:09:23;;;;;;;;;8.00;3.00;;;;;-142.59;100.00;56100.38;5069258;28;49663;-63
2022/02/24 06:11:49;;;;;;;;;3.75;2.00;;;;;-142.59;100.00;56100.38;5069382;27;49844;-63
2022/02/24 06:14:15;;;;;;;;;3.50;3.00;;;;;-142.59;100.00;56100.38;5069259;27;50465;-62
2022/02/24 06:16:41;;;;;;;;;3.50;2.75;;;;;-142.59;100.00;56100.38;5069166;27;49754;-63
2022/02/24 06:19:06;;;;;;;;;5.25;3.00;;;;;-142.59;100.00;56100.38;5069066;27;49993;-63
2022/02/24 06:21:31;;;;;;;;;2.75;2.75;;;;;-142.59;100.00;56100.38;5069502;27;50170;-64
2022/02/24 06:23:56;;;;;;;;;2.00;2.00;;;;;-142.59;100.00;56100.38;5078396;27;49805;-63
2022/02/24 06:26:22;;;;;;;;;5.50;2.75;;;;;-142.59;100.00;56100.38;5077364;27;50071;-63
2022/02/24 06:28:47;;;;;;;;;5.00;4.00;;;;;-142.59;100.00;56100.38;5069163;28;49828;-63
2022/02/24 06:31:13;;;;;;;;;4.75;2.25;;;;;-142.59;100.00;56100.38;5071781;27;49755;-63
2022/02/24 06:33:38;;;;;;;;;3.25;2.75;;;;;-142.59;100.00;56100.38;5072956;28;49924;-64
2022/02/24 06:36:04;;;;;;;;;3.75;3.25;;;;;-142.59;100.00;56100.38;5072678;27;49969;-64
2022/02/24 06:38:30;;;;;;;;;3.25;2.50;;;;;-142.59;100.00;56100.38;5072888;28;51002;-64
2022/02/24 06:40:55;;;;;;;;;4.50;1.50;;;;;-142.59;100.00;56100.38;5077620;27;49912;-63
2022/02/24 06:43:21;;;;;;;;;5.75;3.25;;;;;-142.59;100.00;56100.38;5072597;27;49818;-63
2022/02/24 06:45:46;;;;;;;;;3.50;2.25;;;;;-142.59;100.00;56100.38;5077891;27;49611;-63
2022/02/24 06:48:12;;;;;;;;;2.25;2.25;;;;;-142.59;100.00;56100.38;5071801;27;50651;-63
2022/02/24 06:50:38;;;;;;;;;3.00;2.00;;;;;-142.59;100.00;56100.38;5072117;27;49822;-63
2022/02/24 06:53:03;;;;;;;;;6.50;4.75;;;;;-142.59;100.00;56100.38;5075691;27;49787;-64
2022/02/24 06:55:29;;;;;;;;;1.00;1.00;;;;;-142.59;100.00;56100.38;5074275;27;49567;-63
2022/02/24 06:57:54;;;;;;;;;6.50;3.00;;;;;-142.59;100.00;56100.38;5072168;27;50346;-63
2022/02/24 07:00:21;;;;;;;;;3.50;2.50;;;;;-142.59;100.00;56100.38;5070629;27;49987;-64
2022/02/24 07:02:47;;;;;;;;;4.50;2.25;;;;;-142.59;100.00;56100.38;5071850;28;49954;-63
2022/02/24 07:05:13;;;;;;;;;3.00;1.75;;;;;-142.59;100.00;56100.38;5073054;27;50006;-63
2022/02/24 07:07:38;;;;;;;;;3.75;3.50;;;;;-142.59;100.00;56100.38;5071943;28;50230;-64
2022/02/24 07:10:08;;;;;;;;;2.25;2.25;;;;;-142.59;100.00;56100.38;5072180;28;49731;-63
2022/02/24 07:12:34;;;;;;;;;1.50;1.50;;;;;-142.59;100.00;56100.38;5072024;27;49844;-63
2022/02/24 07:15:00;;;;;;;;;3.50;3.50;;;;;-142.59;100.00;56100.38;5072224;27;49964;-71
2022/02/24 07:17:25;;;;;;;;;6.75;3.75;;;;;-142.59;100.00;56100.38;5071878;28;50868;-75
2022/02/24 07:19:51;;;;;;;;;7.50;6.00;;;;;-142.59;100.00;56100.38;5071819;28;49763;-63
2022/02/24 07:22:16;;;;;;;;;3.00;2.00;;;;;-142.59;100.00;56100.38;5081524;28;49785;-63
2022/02/24 07:24:41;;;;;;;;;2.00;2.00;;;;;-142.59;100.00;56100.38;5074065;28;49799;-63
2022/02/24 07:27:07;;;;;;;;;4.00;3.00;;;;;-142.59;100.00;56100.38;5076707;28;50167;-65
2022/02/24 07:29:32;;;;;;;;;3.00;3.00;;;;;-142.59;100.00;56100.38;5072267;28;49926;-63
2022/02/24 07:31:57;;;;;;;;;6.25;4.50;;;;;-142.59;100.00;56100.38;5072466;27;49812;-63
2022/02/24 07:34:23;;;;;;;;;2.75;2.75;;;;;-142.59;100.00;56100.38;5074834;28;50476;-63
2022/02/24 07:36:50;;;;;;;;;4.00;3.50;;;;;-142.59;100.00;56100.38;5072248;28;50435;-63
2022/02/24 07:39:16;;;;;;;;;6.00;6.00;;;;;-142.59;100.00;56100.38;5066143;28;49780;-63
2022/02/24 07:41:42;;;;;;;;;5.00;2.75;;;;;-142.59;100.00;56100.38;5071548;27;50147;-64
2022/02/24 07:44:08;;;;;;;;;3.00;1.50;;;;;-142.59;100.00;56100.38;5072679;27;50071;-63
2022/02/24 07:46:34;;;;;;;;;4.75;3.25;;;;;-142.59;100.00;56100.38;5071529;28;49808;-63
2022/02/24 07:49:00;;;;;;;;;7.00;3.00;;;;;-142.59;100.00;56100.38;5071740;28;49680;-63
2022/02/24 07:51:25;;;;;;;;;2.25;1.75;;;;;-142.59;100.00;56100.38;5073252;28;49980;-63
2022/02/24 07:53:51;;;;;;;;;7.50;5.00;;;;;-142.59;100.00;56100.38;5073343;27;50041;-64
2022/02/24 07:56:16;;;;;;;;;7.00;5.00;;;;;-142.59;100.00;56100.38;5073419;27;50482;-64
2022/02/24 07:58:42;;;;;;;;;3.00;3.00;;;;;-142.59;100.00;56100.38;5075840;28;49850;-63
2022/02/24 08:01:07;;;;;;;;;6.75;3.25;;;;;-142.59;100.00;56100.38;5083782;28;49915;-63
2022/02/24 08:03:33;;;;;;;;;6.25;6.25;;;;;-142.59;100.00;56100.38;5092204;27;50084;-63
2022/02/24 08:05:58;;;;;;;;;1.75;1.75;;;;;-142.59;100.00;56100.38;5089603;28;49473;-71
2022/02/24 08:08:24;;;;;;;;;2.75;2.00;;;;;-142.59;100.00;56100.38;5066087;28;49660;-63
2022/02/24 08:10:49;;;;;;;;;3.25;2.50;;;;;-142.59;100.00;56100.38;5086742;28;49321;-63
2022/02/24 08:13:15;;;;;;;;;4.00;3.25;;;;;-142.59;100.00;56100.38;5094644;27;49450;-62
2022/02/24 08:15:41;;;;;;;;;3.00;2.50;;;;;-142.59;100.00;56100.38;5084074;27;49784;-63
2022/02/24 08:18:07;;;;;;;;;4.25;4.25;;;;;-142.59;100.00;56100.38;5075368;27;50006;-63
2022/02/24 08:20:32;;;;;;;;;4.75;3.00;;;;;-142.59;100.00;56100.38;5072355;27;50338;-63
2022/02/24 08:23:01;;;;;;;;;5.75;5.75;;;;;-142.59;100.00;56100.38;5073658;27;49758;-64
2022/02/24 08:25:27;;;;;;;;;5.00;5.00;;;;;-142.59;100.00;56100.38;5083455;27;49738;-64
2022/02/24 08:27:54;;;;;;;;;3.75;2.50;;;;;-142.59;100.00;56100.38;5090245;27;49461;-64
2022/02/24 08:30:21;;;;;;;;;3.00;2.00;;;;;-142.59;100.00;56100.38;5062862;27;49839;-64
2022/02/24 08:32:48;;;;;;;;;2.50;2.25;;;;;-142.59;100.00;56100.38;5083680;27;49749;-64
2022/02/24 08:35:14;;;;;;;;;8.00;3.00;;;;;-142.59;100.00;56100.38;5073105;28;50809;-66
2022/02/24 08:37:44;;;;;;;;;4.50;2.00;;;;;-142.59;100.00;56100.38;5070604;28;49734;-66
2022/02/24 08:40:10;;;;;;;;;1.75;1.75;;;;;-142.59;100.00;56100.38;5072855;27;49777;-65
2022/02/24 08:42:35;;;;;;;;;2.50;2.50;;;;;-142.59;100.00;56100.38;5073228;28;49833;-64
2022/02/24 08:45:01;;;;;;;;;1.50;1.50;;;;;-142.59;100.00;56100.38;5075950;27;49947;-64
2022/02/24 08:47:26;;;;;;;;;4.00;3.00;;;;;-142.59;100.00;56100.38;5071219;27;49822;-63
2022/02/24 08:49:51;;;;;;;;;3.50;2.25;;;;;-142.59;100.00;56100.38;5080356;27;49801;-63
2022/02/24 08:52:17;;;;;;;;;2.75;2.50;;;;;-142.59;100.00;56100.38;5055451;27;49908;-63
2022/02/24 08:54:43;;;;;;;;;7.00;4.00;;;;;-142.59;100.00;56100.38;5060878;27;52111;-63
2022/02/24 08:57:08;;;;;;;;;3.25;2.50;;;;;-142.59;100.00;56100.38;5070668;28;49782;-69
2022/02/24 08:59:34;;;;;;;;;3.00;2.00;;;;;-142.59;100.00;56100.38;5075354;27;49743;-68
2022/02/24 09:01:59;;;;;;;;;9.00;3.00;;;;;-142.59;100.00;56100.38;5071255;27;49958;-63
2022/02/24 09:04:25;;;;;;;;;1.00;1.00;;;;;-142.59;100.00;56100.38;5074331;28;50552;-63
2022/02/24 09:06:50;;;;;;;;;2.00;2.00;;;;;-142.59;100.00;56100.38;5073101;28;49636;-63
2022/02/24 09:09:16;;;;;;;;;2.25;2.25;;;;;-142.59;100.00;56100.38;5070786;28;49735;-63
2022/02/24 09:11:42;;;;;;;;;2.00;2.00;;;;;-142.59;100.00;56100.38;5070973;27;49855;-67
2022/02/24 09:14:08;;;;;;;;;0.00;0.00;;;;;-142.59;100.00;56100.38;5071936;28;50625;-63
2022/02/24 09:16:34;;;;;;;;;1.25;1.25;;;;;-142.59;100.00;56100.38;5070405;28;49869;-63
2022/02/24 09:19:00;;;;;;;;;5.75;2.00;;;;;-142.59;100.00;56100.38;5069624;28;49579;-63
2022/02/24 09:21:25;;;;;;;;;3.25;3.00;;;;;-142.59;100.00;56100.38;5070838;27;49703;-64
2022/02/24 09:23:51;;;;;;;;;2.25;1.25;;;;;-142.59;100.00;56100.38;5070250;28;49833;-64
2022/02/24 09:26:17;;;;;;;;;2.75;1.00;;;;;-142.59;100.00;56100.38;5072744;27;50190;-65
2022/02/24 09:28:42;;;;;;;;;1.25;1.25;;;;;-142.59;100.00;56100.38;5072891;28;49985;-63
2022/02/24 09:31:08;;;;;;;;;1.50;1.50;;;;;-142.59;100.00;56100.38;5077719;28;49776;-64
2022/02/24 09:33:34;;;;;;;;;1.50;1.50;;;;;-142.59;100.00;56100.38;5082161;27;49655;-62
2022/02/24 09:35:59;;;;;;;;;1.00;1.00;;;;;-142.59;100.00;56100.38;5070290;28;49731;-63
2022/02/24 09:38:25;;;;;;;;;2.50;1.00;;;;;-142.59;100.00;56100.38;5070421;27;49847;-70
2022/02/24 09:40:56;;;;;;;;;3.00;1.00;;;;;-142.59;100.00;56100.38;5070493;28;49794;-63
2022/02/24 09:43:27;;;;;;;;;1.75;1.75;;;;;-142.59;100.00;56100.38;5069971;28;51071;-65
2022/02/24 09:45:56;;;;;;;;;2.00;2.00;;;;;-142.59;100.00;56100.38;5070219;28;49679;-64
2022/02/24 09:48:28;;;;;;;;;3.00;3.00;;;;;-142.59;100.00;56100.38;5070042;28;49821;-66
2022/02/24 09:50:54;;;;;;;;;2.00;1.00;;;;;-142.59;100.00;56100.38;5070341;28;49781;-64
2022/02/24 09:53:20;;;;;;;;;3.00;2.00;;;;;-142.59;100.00;56100.38;5070053;28;50361;-65
2022/02/24 09:55:46;;;;;;;;;2.50;1.75;;;;;-142.59;100.00;56100.38;5070173;28;49945;-65
2022/02/24 09:58:11;;;;;;;;;1.00;1.00;;;;;-142.59;100.00;56100.38;5070233;28;49721;-66
2022/02/24 10:00:37;;;;;;;;;4.00;3.00;;;;;-142.59;100.00;56100.38;5063670;28;49847;-65
2022/02/24 10:03:29;;;;;;;;;3.00;1.25;;;;;-142.59;100.00;56100.38;5069846;27;50233;-66
2022/02/24 10:05:54;;;;;;;;;2.00;2.00;;;;;-142.59;100.00;56100.38;5068867;28;49814;-66
2022/02/24 10:08:36;;;;;;;;;2.00;2.00;;;;;-142.59;100.00;56100.38;5073696;27;50295;-66
2022/02/24 10:11:14;;;;;;;;;1.25;1.25;;;;;-142.59;100.00;56100.38;5073764;28;49778;-63
2022/02/24 10:13:39;;;;;;;;;2.00;2.00;;;;;-142.59;100.00;56100.38;5073252;27;50894;-64
2022/02/24 10:16:05;;;;;;;;;1.75;1.00;;;;;-142.59;100.00;56100.38;5072922;28;49849;-65
2022/02/24 10:18:33;;;;;;;;;1.00;1.00;;;;;-142.59;100.00;56100.38;5073279;28;49738;-65
2022/02/24 10:21:04;;;;;;;;;1.75;1.25;;;;;-142.59;100.00;56100.38;5073546;28;49928;-66
2022/02/24 10:23:49;;;;;;;;;4.00;2.00;;;;;-142.59;100.00;56100.38;5073254;28;50968;-64
2022/02/24 10:26:16;;;;;;;;;4.50;2.50;;;;;-142.59;100.00;56100.38;5067638;27;49718;-64
2022/02/24 10:28:49;;;;;;;;;2.00;1.50;;;;;-142.59;100.00;56100.38;5073307;28;50046;-64
2022/02/24 10:31:23;;;;;;;;;6.75;3.00;;;;;-142.59;100.00;56100.38;5073192;28;49778;-64
2022/02/24 10:34:08;;;;;;;;;3.00;2.00;;;;;-142.59;100.00;56100.38;5072789;28;51101;-63
2022/02/24 10:36:36;;;;;;;;;3.75;3.50;;;;;-142.59;100.00;56100.38;5072882;28;49830;-63
2022/02/24 10:39:05;;;;;;;;;5.25;2.25;;;;;-142.59;100.00;56100.38;5055044;28;49760;-63
2022/02/24 10:41:33;;;;;;;;;3.75;2.00;;;;;-142.59;100.00;56100.38;5073303;28;50182;-64
2022/02/24 10:44:11;;;;;;;;;2.00;2.00;;;;;-142.59;100.00;56100.38;5072965;28;50992;-64
2022/02/24 10:46:37;;;;;;;;;3.00;3.00;;;;;-142.59;100.00;56100.38;5072728;28;49802;-63
2022/02/24 10:49:02;;;;;;;;;5.00;1.00;;;;;-142.59;100.00;56100.38;5072810;28;50048;-62
2022/02/24 10:51:32;;;;;;;;;2.75;2.00;;;;;-142.59;100.00;56100.38;5073171;27;49681;-64
2022/02/24 10:54:12;;;;;;;;;1.25;1.25;;;;;-142.59;100.00;56100.38;5072553;27;49788;-64
2022/02/24 10:56:42;;;;;;;;;3.00;1.75;;;;;-142.59;100.00;56100.38;5067123;28;49651;-63
2022/02/24 10:59:08;;;;;;;;;1.75;1.75;;;;;-142.59;100.00;56100.38;5072794;27;49813;-64
2022/02/24 11:01:35;;;;;;;;;0.50;0.00;;;;;-142.59;100.00;56100.38;5072880;27;49929;-64